Portada
METAR-TAF:

METAR-TAF

Aeroports :

Vlissingen, Països Baixos

latitud: 51-27N, longitud: 3-36E, altitud: 10 m

Observació

L'informe es va fer fa 35 minuts, a les 21:55 UTC
Vent 19 kt del Oest/Sud-Oest amb ràfegues de 33 kt
Temperatura 7°C
Humitat 93%
Pressió 1014 hPa
Visibilitat: 2800 m
pluja

METAR: EHFS 182155Z AUTO 24019G33KT 2800 RA FEW005/// SCT011/// BKN014/// 07/06 Q1014

Hora: 23:30 (22:30 UTC)


TAF: manca

Observacions i pronòstics meteorològics de més de 4000 aeroports (METAR i TAF).

Les estacions disponibles són els punts grocs i vermells al mapa.

Posi el ratolí al punt desitjat per veure el nom de l'estació.

Feu clic per veure les observacions i els pronòstics meteorològics.

Per canviar el mapa: feu clic els botons verds amb una creu de color negre per apropar; al botó verd amb un guió per allunyar la imatge; o en les fletxes verdes per a mapes adjacents.


METAR-TAF: